MSC Maeva — H9TF — position and weather

sailwx.info

Track history (hours):
 
Tides and Currents Weather Stations Pressure Air Temp Water Temp Dewpoint Dewpoint Depression Visibility Wind Speed Wind Dir Waves Ship Positions

MSC Maeva

Last reported at 2017-Jul-13 02:25 UTC. Time now 2017-Jul-22 16:29 UTC.
Position N 31°59' W 080°33'.
Warning: this ship's position is 9 days out of date.

Type: Ship (hazmat cat A). MMSI: 371851000.

Date/timePositionNaut miles runAvg speedWind from/ knotsBaromVisibWave heightAir tempDewpointWater temp
2017-Jul-13 02:25N 31°59' W 080°33'713.5
2017-Jul-13 01:56N 31°58' W 080°41'613.0
2017-Jul-13 01:30N 31°60' W 080°47'612.1
2017-Jul-13 01:00N 32°02' W 080°54'5 9.3
2017-Jul-13 00:30N 32°05' W 080°59'4 7.3
2017-Jul-13 00:00N 32°05' W 081°03'3 5.2
2017-Jul-12 23:30N 32°05' W 081°06'2 4.3
2017-Jul-12 23:00N 32°07' W 081°08'1 1.4
2017-Jul-12 22:26N 32°08' W 081°08'0 0.0
2017-Jul-12 21:56N 32°08' W 081°08'0 0.0
2017-Jul-12 21:20N 32°08' W 081°08'0 0.0
2017-Jul-12 20:56N 32°08' W 081°08'0 0.0
2017-Jul-12 20:26N 32°08' W 081°08'0 0.0
2017-Jul-12 19:55N 32°08' W 081°08'0 0.0
2017-Jul-12 19:25N 32°08' W 081°08'0 0.0
2017-Jul-12 18:49N 32°08' W 081°08'0 0.0
2017-Jul-12 18:25N 32°08' W 081°08'0 0.0
2017-Jul-12 17:55N 32°08' W 081°08'0 0.0
2017-Jul-12 17:25N 32°08' W 081°08'0 0.0
2017-Jul-12 16:55N 32°08' W 081°08'0 0.0
2017-Jul-12 16:25N 32°08' W 081°08'0 0.0
2017-Jul-12 15:55N 32°08' W 081°08'0 0.0
2017-Jul-12 15:25N 32°08' W 081°08'0 0.0
2017-Jul-12 14:55N 32°08' W 081°08'0 0.0
2017-Jul-12 13:55N 32°08' W 081°08'0 0.0
2017-Jul-12 13:25N 32°08' W 081°08'0 0.0
2017-Jul-12 12:55N 32°08' W 081°08'0 0.0
2017-Jul-12 12:25N 32°08' W 081°08'0 0.0
2017-Jul-12 11:55N 32°08' W 081°08'0 0.0
2017-Jul-12 11:25N 32°08' W 081°08'0 0.0
2017-Jul-12 10:55N 32°08' W 081°08'0 0.0
2017-Jul-12 10:30N 32°08' W 081°08'0 0.7
2017-Jul-12 10:00N 32°08' W 081°08'2 3.7
2017-Jul-12 09:30N 32°06' W 081°07'2 3.8
2017-Jul-12 09:00N 32°05' W 081°06'3 5.4
2017-Jul-12 08:30N 32°05' W 081°02'3 6.1
2017-Jul-12 08:00N 32°05' W 080°59'5 9.5
2017-Jul-12 07:30N 32°02' W 080°54'510.8
2017-Jul-12 07:00N 32°01' W 080°48'612.8
2017-Jul-12 06:30N 31°57' W 080°42'4 8.8
2017-Jul-12 06:00N 31°57' W 080°37'4 8.2
2017-Jul-12 05:30N 31°58' W 080°32'4 8.3
2017-Jul-12 05:00N 31°60' W 080°27'4 8.3
2017-Jul-12 04:30N 32°01' W 080°23'12 2.2
2017-Jul-11 22:55N 32°01' W 080°08'0 1.1
2017-Jul-11 22:30N 32°00' W 080°08'0 0.9
2017-Jul-11 22:00N 31°60' W 080°08'0 0.8
2017-Jul-11 21:30N 31°59' W 080°08'0 0.8
2017-Jul-11 21:00N 31°59' W 080°08'0 0.7
2017-Jul-11 20:30N 31°59' W 080°08'0 0.7
2017-Jul-11 19:54N 31°58' W 080°08'3 0.7
2017-Jul-11 15:58N 31°56' W 080°10'1 0.6
2017-Jul-11 14:54N 31°56' W 080°11'0 0.5
2017-Jul-11 14:20N 31°56' W 080°11'0 0.4
2017-Jul-11 13:36N 31°56' W 080°12'0 0.6
2017-Jul-11 13:21N 31°56' W 080°12'1 2.3
2017-Jul-11 13:00N 31°56' W 080°11'3 6.5
2017-Jul-11 12:30N 31°58' W 080°08'4 6.9
2017-Jul-11 11:56N 31°60' W 080°03'223 9.6
2017-Jul-10 12:39N 34°05' W 076°24'214.3
2017-Jul-10 12:31N 34°06' W 076°22'17113.4
2017-Jul-09 23:45N 36°34' W 074°36'14915.1
2017-Jul-09 13:50N 38°59' W 073°51'917.6
2017-Jul-09 13:20N 39°08' W 073°51'1020.6
2017-Jul-09 12:49N 39°18' W 073°52'721.0
2017-Jul-09 12:31N 39°25' W 073°52'1020.6
2017-Jul-09 12:00N 39°35' W 073°52'1020.2
2017-Jul-09 11:30N 39°45' W 073°52'1020.6
2017-Jul-09 11:00N 39°56' W 073°51'1020.2
2017-Jul-09 10:30N 40°06' W 073°50'1120.2
2017-Jul-09 09:57N 40°17' W 073°49'818.1
2017-Jul-09 09:30N 40°25' W 073°48'1013.2
2017-Jul-09 08:44N 40°31' W 073°59'416.3
2017-Jul-09 08:30N 40°34' W 074°02'611.9
2017-Jul-09 08:00N 40°39' W 074°05'3 6.2
2017-Jul-09 07:31N 40°39' W 074°09'2 3.8
2017-Jul-09 07:01N 40°40' W 074°08'1 1.8
2017-Jul-09 06:30N 40°41' W 074°09'0 0.0
2017-Jul-09 06:00N 40°41' W 074°09'0 0.0
2017-Jul-09 05:31N 40°41' W 074°09'0 0.0
2017-Jul-09 05:00N 40°41' W 074°09'0 0.0
2017-Jul-09 04:31N 40°41' W 074°09'0 0.0
2017-Jul-09 04:00N 40°41' W 074°09'0 0.0
2017-Jul-09 03:31N 40°41' W 074°09'0 0.0
2017-Jul-09 03:01N 40°41' W 074°09'0 0.0
2017-Jul-09 02:31N 40°41' W 074°09'0 0.0
2017-Jul-09 02:01N 40°41' W 074°09'0 0.0
2017-Jul-09 01:31N 40°41' W 074°09'0 0.0
2017-Jul-09 01:01N 40°41' W 074°09'0 0.0
2017-Jul-09 00:30N 40°41' W 074°09'0 0.0
2017-Jul-09 00:00N 40°41' W 074°09'0 0.0
2017-Jul-08 23:31N 40°41' W 074°09'0 0.0
2017-Jul-08 23:00N 40°41' W 074°09'0 0.0
2017-Jul-08 22:30N 40°41' W 074°09'0 0.0
2017-Jul-08 22:01N 40°41' W 074°09'0 0.0
2017-Jul-08 21:31N 40°41' W 074°09'0 0.0
2017-Jul-08 21:01N 40°41' W 074°09'0 0.0
2017-Jul-08 20:31N 40°41' W 074°09'0 0.0
2017-Jul-08 20:01N 40°41' W 074°09'0 0.0
2017-Jul-08 19:31N 40°41' W 074°09'0 0.0
2017-Jul-08 19:01N 40°41' W 074°09'0 0.0
2017-Jul-08 18:31N 40°41' W 074°09'0 0.0
2017-Jul-08 18:00N 40°41' W 074°09'0 0.0
2017-Jul-08 17:31N 40°41' W 074°09'0 0.0
2017-Jul-08 17:01N 40°41' W 074°09'0 0.0
2017-Jul-08 16:31N 40°41' W 074°09'0 0.0
2017-Jul-08 16:01N 40°41' W 074°09'0 0.0
2017-Jul-08 15:30N 40°41' W 074°09'0 0.0
2017-Jul-08 15:01N 40°41' W 074°09'0 0.0
2017-Jul-08 14:01N 40°41' W 074°09'0 0.0
2017-Jul-08 13:30N 40°41' W 074°09'0 0.0
2017-Jul-08 13:00N 40°41' W 074°09'0 0.0
2017-Jul-08 12:31N 40°41' W 074°09'0 0.0
2017-Jul-08 12:01N 40°41' W 074°09'0 0.0
2017-Jul-08 11:30N 40°41' W 074°09'0 0.0
2017-Jul-08 11:01N 40°41' W 074°09'0 0.0
2017-Jul-08 10:31N 40°41' W 074°09'0 0.0
2017-Jul-08 10:01N 40°41' W 074°09'0 0.0
2017-Jul-08 09:30N 40°41' W 074°09'0 0.0
2017-Jul-08 09:00N 40°41' W 074°09'0 0.0
2017-Jul-08 08:31N 40°41' W 074°09'0 0.0
2017-Jul-08 08:01N 40°41' W 074°09'0 0.0
2017-Jul-08 07:31N 40°41' W 074°09'0 0.0
2017-Jul-08 07:01N 40°41' W 074°09'0 0.0
2017-Jul-08 06:31N 40°41' W 074°09'0 0.0
2017-Jul-08 06:00N 40°41' W 074°09'0 0.0
2017-Jul-08 05:31N 40°41' W 074°09'0 0.0
2017-Jul-08 05:00N 40°41' W 074°09'0 0.0
2017-Jul-08 04:30N 40°41' W 074°09'0 0.0
2017-Jul-08 04:01N 40°41' W 074°09'0 0.0
2017-Jul-08 03:30N 40°41' W 074°09'0 0.0
2017-Jul-08 03:00N 40°41' W 074°09'0 0.0
2017-Jul-08 02:30N 40°41' W 074°09'0 0.0
2017-Jul-08 02:00N 40°41' W 074°09'0 0.0
2017-Jul-08 01:31N 40°41' W 074°09'0 0.0
2017-Jul-08 01:00N 40°41' W 074°09'0 0.0
2017-Jul-08 00:30N 40°41' W 074°09'0 0.0
2017-Jul-08 00:00N 40°41' W 074°09'0 0.0
2017-Jul-07 23:30N 40°41' W 074°09'0 0.0
2017-Jul-07 23:00N 40°41' W 074°09'0 0.0
2017-Jul-07 22:30N 40°41' W 074°09'0 0.0
2017-Jul-07 22:00N 40°41' W 074°09'0 0.0
2017-Jul-07 21:30N 40°41' W 074°09'0 0.0
2017-Jul-07 21:01N 40°41' W 074°09'0 0.0
2017-Jul-07 20:30N 40°41' W 074°09'0 0.0
2017-Jul-07 20:00N 40°41' W 074°09'0 0.0
2017-Jul-07 19:30N 40°41' W 074°09'0 0.0
2017-Jul-07 19:00N 40°41' W 074°09'0 0.0
2017-Jul-07 18:31N 40°41' W 074°09'0 0.0
2017-Jul-07 18:00N 40°41' W 074°09'0 0.0
2017-Jul-07 17:30N 40°41' W 074°09'0 0.0
2017-Jul-07 17:00N 40°41' W 074°09'0 0.0
2017-Jul-07 16:30N 40°41' W 074°09'0 0.0
2017-Jul-07 16:01N 40°41' W 074°09'0 0.0
2017-Jul-07 15:30N 40°41' W 074°09'0 0.0
2017-Jul-07 15:01N 40°41' W 074°09'0 0.0
2017-Jul-07 14:00N 40°41' W 074°09'0 0.0
2017-Jul-07 13:30N 40°41' W 074°09'0 0.0
2017-Jul-07 13:01N 40°41' W 074°09'0 0.0
2017-Jul-07 12:31N 40°41' W 074°09'0 0.0
2017-Jul-07 12:00N 40°41' W 074°09'0 0.0
2017-Jul-07 11:30N 40°41' W 074°09'0 0.0
2017-Jul-07 11:01N 40°41' W 074°09'0 0.5
2017-Jul-07 10:30N 40°41' W 074°09'2 3.7
2017-Jul-07 10:01N 40°39' W 074°09'2 4.4
2017-Jul-07 09:30N 40°39' W 074°06'2 5.0
2017-Jul-07 09:01N 40°38' W 074°03'3 5.7
2017-Jul-07 08:30N 40°35' W 074°02'4 8.2
2017-Jul-07 08:00N 40°31' W 073°60'612.7
2017-Jul-07 07:30N 40°28' W 073°52'4 8.8
2017-Jul-07 07:00N 40°26' W 073°47'2 1.0
2017-Jul-07 04:35N 40°29' W 073°46'0 0.1
2017-Jul-07 04:11N 40°29' W 073°46'0 0.0
2017-Jul-07 03:23N 40°29' W 073°46'0 0.0
2017-Jul-07 02:59N 40°29' W 073°46'0 0.0
2017-Jul-06 23:35N 40°29' W 073°46'0 0.0
2017-Jul-06 23:29N 40°29' W 073°46'0 0.0
2017-Jul-06 22:59N 40°29' W 073°46'  
Track history (hours):
 
Tides and Currents Weather Stations Pressure Air Temp Water Temp Dewpoint Dewpoint Depression Visibility Wind Speed Wind Dir Waves Ship Positions

MSC Maeva

Last reported at 2017-Jul-13 02:25 UTC. Time now 2017-Jul-22 16:29 UTC.
Position N 31°59' W 080°33'.
Warning: this ship's position is 9 days out of date.

Type: Ship (hazmat cat A). MMSI: 371851000.

Date/timePositionNaut miles runAvg speedWind from/ knotsBaromVisibWave heightAir tempDewpointWater temp
2017-Jul-13 02:25N 31°59' W 080°33'713.5
2017-Jul-13 01:56N 31°58' W 080°41'613.0
2017-Jul-13 01:30N 31°60' W 080°47'612.1
2017-Jul-13 01:00N 32°02' W 080°54'5 9.3
2017-Jul-13 00:30N 32°05' W 080°59'4 7.3
2017-Jul-13 00:00N 32°05' W 081°03'3 5.2
2017-Jul-12 23:30N 32°05' W 081°06'2 4.3
2017-Jul-12 23:00N 32°07' W 081°08'1 1.4
2017-Jul-12 22:26N 32°08' W 081°08'0 0.0
2017-Jul-12 21:56N 32°08' W 081°08'0 0.0
2017-Jul-12 21:20N 32°08' W 081°08'0 0.0
2017-Jul-12 20:56N 32°08' W 081°08'0 0.0
2017-Jul-12 20:26N 32°08' W 081°08'0 0.0
2017-Jul-12 19:55N 32°08' W 081°08'0 0.0
2017-Jul-12 19:25N 32°08' W 081°08'0 0.0
2017-Jul-12 18:49N 32°08' W 081°08'0 0.0
2017-Jul-12 18:25N 32°08' W 081°08'0 0.0
2017-Jul-12 17:55N 32°08' W 081°08'0 0.0
2017-Jul-12 17:25N 32°08' W 081°08'0 0.0
2017-Jul-12 16:55N 32°08' W 081°08'0 0.0
2017-Jul-12 16:25N 32°08' W 081°08'0 0.0
2017-Jul-12 15:55N 32°08' W 081°08'0 0.0
2017-Jul-12 15:25N 32°08' W 081°08'0 0.0
2017-Jul-12 14:55N 32°08' W 081°08'0 0.0
2017-Jul-12 13:55N 32°08' W 081°08'0 0.0
2017-Jul-12 13:25N 32°08' W 081°08'0 0.0
2017-Jul-12 12:55N 32°08' W 081°08'0 0.0
2017-Jul-12 12:25N 32°08' W 081°08'0 0.0
2017-Jul-12 11:55N 32°08' W 081°08'0 0.0
2017-Jul-12 11:25N 32°08' W 081°08'0 0.0
2017-Jul-12 10:55N 32°08' W 081°08'0 0.0
2017-Jul-12 10:30N 32°08' W 081°08'0 0.7
2017-Jul-12 10:00N 32°08' W 081°08'2 3.7
2017-Jul-12 09:30N 32°06' W 081°07'2 3.8
2017-Jul-12 09:00N 32°05' W 081°06'3 5.4
2017-Jul-12 08:30N 32°05' W 081°02'3 6.1
2017-Jul-12 08:00N 32°05' W 080°59'5 9.5
2017-Jul-12 07:30N 32°02' W 080°54'510.8
2017-Jul-12 07:00N 32°01' W 080°48'612.8
2017-Jul-12 06:30N 31°57' W 080°42'4 8.8
2017-Jul-12 06:00N 31°57' W 080°37'4 8.2
2017-Jul-12 05:30N 31°58' W 080°32'4 8.3
2017-Jul-12 05:00N 31°60' W 080°27'4 8.3
2017-Jul-12 04:30N 32°01' W 080°23'12 2.2
2017-Jul-11 22:55N 32°01' W 080°08'0 1.1
2017-Jul-11 22:30N 32°00' W 080°08'0 0.9
2017-Jul-11 22:00N 31°60' W 080°08'0 0.8
2017-Jul-11 21:30N 31°59' W 080°08'0 0.8
2017-Jul-11 21:00N 31°59' W 080°08'0 0.7
2017-Jul-11 20:30N 31°59' W 080°08'0 0.7
2017-Jul-11 19:54N 31°58' W 080°08'3 0.7
2017-Jul-11 15:58N 31°56' W 080°10'1 0.6
2017-Jul-11 14:54N 31°56' W 080°11'0 0.5
2017-Jul-11 14:20N 31°56' W 080°11'0 0.4
2017-Jul-11 13:36N 31°56' W 080°12'0 0.6
2017-Jul-11 13:21N 31°56' W 080°12'1 2.3
2017-Jul-11 13:00N 31°56' W 080°11'3 6.5
2017-Jul-11 12:30N 31°58' W 080°08'4 6.9
2017-Jul-11 11:56N 31°60' W 080°03'223 9.6
2017-Jul-10 12:39N 34°05' W 076°24'214.3
2017-Jul-10 12:31N 34°06' W 076°22'17113.4
2017-Jul-09 23:45N 36°34' W 074°36'14915.1
2017-Jul-09 13:50N 38°59' W 073°51'917.6
2017-Jul-09 13:20N 39°08' W 073°51'1020.6
2017-Jul-09 12:49N 39°18' W 073°52'721.0
2017-Jul-09 12:31N 39°25' W 073°52'1020.6
2017-Jul-09 12:00N 39°35' W 073°52'1020.2
2017-Jul-09 11:30N 39°45' W 073°52'1020.6
2017-Jul-09 11:00N 39°56' W 073°51'1020.2
2017-Jul-09 10:30N 40°06' W 073°50'1120.2
2017-Jul-09 09:57N 40°17' W 073°49'818.1
2017-Jul-09 09:30N 40°25' W 073°48'1013.2
2017-Jul-09 08:44N 40°31' W 073°59'416.3
2017-Jul-09 08:30N 40°34' W 074°02'611.9
2017-Jul-09 08:00N 40°39' W 074°05'3 6.2
2017-Jul-09 07:31N 40°39' W 074°09'2 3.8
2017-Jul-09 07:01N 40°40' W 074°08'1 1.8
2017-Jul-09 06:30N 40°41' W 074°09'0 0.0
2017-Jul-09 06:00N 40°41' W 074°09'0 0.0
2017-Jul-09 05:31N 40°41' W 074°09'0 0.0
2017-Jul-09 05:00N 40°41' W 074°09'0 0.0
2017-Jul-09 04:31N 40°41' W 074°09'0 0.0
2017-Jul-09 04:00N 40°41' W 074°09'0 0.0
2017-Jul-09 03:31N 40°41' W 074°09'0 0.0
2017-Jul-09 03:01N 40°41' W 074°09'0 0.0
2017-Jul-09 02:31N 40°41' W 074°09'0 0.0
2017-Jul-09 02:01N 40°41' W 074°09'0 0.0
2017-Jul-09 01:31N 40°41' W 074°09'0 0.0
2017-Jul-09 01:01N 40°41' W 074°09'0 0.0
2017-Jul-09 00:30N 40°41' W 074°09'0 0.0
2017-Jul-09 00:00N 40°41' W 074°09'0 0.0
2017-Jul-08 23:31N 40°41' W 074°09'0 0.0
2017-Jul-08 23:00N 40°41' W 074°09'0 0.0
2017-Jul-08 22:30N 40°41' W 074°09'0 0.0
2017-Jul-08 22:01N 40°41' W 074°09'0 0.0
2017-Jul-08 21:31N 40°41' W 074°09'0 0.0
2017-Jul-08 21:01N 40°41' W 074°09'0 0.0
2017-Jul-08 20:31N 40°41' W 074°09'0 0.0
2017-Jul-08 20:01N 40°41' W 074°09'0 0.0
2017-Jul-08 19:31N 40°41' W 074°09'0 0.0
2017-Jul-08 19:01N 40°41' W 074°09'0 0.0
2017-Jul-08 18:31N 40°41' W 074°09'0 0.0
2017-Jul-08 18:00N 40°41' W 074°09'0 0.0
2017-Jul-08 17:31N 40°41' W 074°09'0 0.0
2017-Jul-08 17:01N 40°41' W 074°09'0 0.0
2017-Jul-08 16:31N 40°41' W 074°09'0 0.0
2017-Jul-08 16:01N 40°41' W 074°09'0 0.0
2017-Jul-08 15:30N 40°41' W 074°09'0 0.0
2017-Jul-08 15:01N 40°41' W 074°09'0 0.0
2017-Jul-08 14:01N 40°41' W 074°09'0 0.0
2017-Jul-08 13:30N 40°41' W 074°09'0 0.0
2017-Jul-08 13:00N 40°41' W 074°09'0 0.0
2017-Jul-08 12:31N 40°41' W 074°09'0 0.0
2017-Jul-08 12:01N 40°41' W 074°09'0 0.0
2017-Jul-08 11:30N 40°41' W 074°09'0 0.0
2017-Jul-08 11:01N 40°41' W 074°09'0 0.0
2017-Jul-08 10:31N 40°41' W 074°09'0 0.0
2017-Jul-08 10:01N 40°41' W 074°09'0 0.0
2017-Jul-08 09:30N 40°41' W 074°09'0 0.0
2017-Jul-08 09:00N 40°41' W 074°09'0 0.0
2017-Jul-08 08:31N 40°41' W 074°09'0 0.0
2017-Jul-08 08:01N 40°41' W 074°09'0 0.0
2017-Jul-08 07:31N 40°41' W 074°09'0 0.0
2017-Jul-08 07:01N 40°41' W 074°09'0 0.0
2017-Jul-08 06:31N 40°41' W 074°09'0 0.0
2017-Jul-08 06:00N 40°41' W 074°09'0 0.0
2017-Jul-08 05:31N 40°41' W 074°09'0 0.0
2017-Jul-08 05:00N 40°41' W 074°09'0 0.0
2017-Jul-08 04:30N 40°41' W 074°09'0 0.0
2017-Jul-08 04:01N 40°41' W 074°09'0 0.0
2017-Jul-08 03:30N 40°41' W 074°09'0 0.0
2017-Jul-08 03:00N 40°41' W 074°09'0 0.0
2017-Jul-08 02:30N 40°41' W 074°09'0 0.0
2017-Jul-08 02:00N 40°41' W 074°09'0 0.0
2017-Jul-08 01:31N 40°41' W 074°09'0 0.0
2017-Jul-08 01:00N 40°41' W 074°09'0 0.0
2017-Jul-08 00:30N 40°41' W 074°09'0 0.0
2017-Jul-08 00:00N 40°41' W 074°09'0 0.0
2017-Jul-07 23:30N 40°41' W 074°09'0 0.0
2017-Jul-07 23:00N 40°41' W 074°09'0 0.0
2017-Jul-07 22:30N 40°41' W 074°09'0 0.0
2017-Jul-07 22:00N 40°41' W 074°09'0 0.0
2017-Jul-07 21:30N 40°41' W 074°09'0 0.0
2017-Jul-07 21:01N 40°41' W 074°09'0 0.0
2017-Jul-07 20:30N 40°41' W 074°09'0 0.0
2017-Jul-07 20:00N 40°41' W 074°09'0 0.0
2017-Jul-07 19:30N 40°41' W 074°09'0 0.0
2017-Jul-07 19:00N 40°41' W 074°09'0 0.0
2017-Jul-07 18:31N 40°41' W 074°09'0 0.0
2017-Jul-07 18:00N 40°41' W 074°09'0 0.0
2017-Jul-07 17:30N 40°41' W 074°09'0 0.0
2017-Jul-07 17:00N 40°41' W 074°09'0 0.0
2017-Jul-07 16:30N 40°41' W 074°09'0 0.0
2017-Jul-07 16:01N 40°41' W 074°09'0 0.0
2017-Jul-07 15:30N 40°41' W 074°09'0 0.0
2017-Jul-07 15:01N 40°41' W 074°09'0 0.0
2017-Jul-07 14:00N 40°41' W 074°09'0 0.0
2017-Jul-07 13:30N 40°41' W 074°09'0 0.0
2017-Jul-07 13:01N 40°41' W 074°09'0 0.0
2017-Jul-07 12:31N 40°41' W 074°09'0 0.0
2017-Jul-07 12:00N 40°41' W 074°09'0 0.0
2017-Jul-07 11:30N 40°41' W 074°09'0 0.0
2017-Jul-07 11:01N 40°41' W 074°09'0 0.5
2017-Jul-07 10:30N 40°41' W 074°09'2 3.7
2017-Jul-07 10:01N 40°39' W 074°09'2 4.4
2017-Jul-07 09:30N 40°39' W 074°06'2 5.0
2017-Jul-07 09:01N 40°38' W 074°03'3 5.7
2017-Jul-07 08:30N 40°35' W 074°02'4 8.2
2017-Jul-07 08:00N 40°31' W 073°60'612.7
2017-Jul-07 07:30N 40°28' W 073°52'4 8.8
2017-Jul-07 07:00N 40°26' W 073°47'2 1.0
2017-Jul-07 04:35N 40°29' W 073°46'0 0.1
2017-Jul-07 04:11N 40°29' W 073°46'0 0.0
2017-Jul-07 03:23N 40°29' W 073°46'0 0.0
2017-Jul-07 02:59N 40°29' W 073°46'0 0.0
2017-Jul-06 23:35N 40°29' W 073°46'0 0.0
2017-Jul-06 23:29N 40°29' W 073°46'0 0.0
2017-Jul-06 22:59N 40°29' W 073°46'  

Dump ship's entire track history